Time;durP1;ratioP1;P1;durP2;ratioP2;P2;SDS_P1;SDS_P2;PMS_P1;PMS_P2;Temp;Humidity;BMP_temperature;BMP_pressure;BME280_temperature;BME280_humidity;BME280_pressure;Samples;Min_cycle;Max_cycle;Signal;HPM_P1;HPM_P2
2023/03/13 00:00:08;;;;;;;1.45;0.80;;;22.60;49.10;;;;;;5070379;28;20205;-63
2023/03/13 00:02:39;;;;;;;1.13;0.43;;;22.60;49.10;;;;;;5071172;28;20194;-63
2023/03/13 00:05:10;;;;;;;1.23;0.65;;;22.60;49.10;;;;;;5070489;28;20709;-63
2023/03/13 00:07:41;;;;;;;0.57;0.45;;;22.60;49.10;;;;;;5071491;28;20198;-63
2023/03/13 00:10:12;;;;;;;0.52;0.50;;;22.60;49.10;;;;;;5071324;28;20565;-62
2023/03/13 00:12:43;;;;;;;1.48;0.40;;;22.60;49.10;;;;;;5071245;28;20193;-62
2023/03/13 00:15:16;;;;;;;1.02;0.60;;;22.60;49.10;;;;;;5071165;28;20227;-63
2023/03/13 00:17:46;;;;;;;0.70;0.50;;;22.60;49.10;;;;;;5070852;28;20282;-63
2023/03/13 00:20:17;;;;;;;1.75;0.50;;;22.60;49.10;;;;;;5071139;28;20195;-63
2023/03/13 00:22:48;;;;;;;1.92;0.52;;;22.60;49.10;;;;;;5071162;28;20226;-63
2023/03/13 00:25:19;;;;;;;0.80;0.57;;;22.50;49.00;;;;;;5070646;28;20226;-62
2023/03/13 00:27:50;;;;;;;1.40;0.57;;;22.50;49.10;;;;;;5070068;28;20907;-63
2023/03/13 00:30:23;;;;;;;2.85;0.68;;;22.50;49.00;;;;;;5070392;28;20211;-63
2023/03/13 00:32:53;;;;;;;1.30;0.40;;;22.50;49.10;;;;;;5069856;28;20194;-60
2023/03/13 00:35:24;;;;;;;0.95;0.73;;;22.50;49.70;;;;;;5069861;28;20226;-63
2023/03/13 00:37:55;;;;;;;0.98;0.50;;;22.50;49.00;;;;;;5070944;28;20206;-63
2023/03/13 00:40:25;;;;;;;0.80;0.30;;;22.40;49.00;;;;;;5070674;28;20648;-63
2023/03/13 00:42:56;;;;;;;0.65;0.40;;;22.40;49.00;;;;;;5070362;28;20217;-63
2023/03/13 00:45:28;;;;;;;0.70;0.50;;;22.40;49.00;;;;;;5070674;28;20214;-61
2023/03/13 00:47:59;;;;;;;0.60;0.40;;;22.40;49.00;;;;;;5070906;28;20206;-61
2023/03/13 00:50:30;;;;;;;0.90;0.60;;;22.40;49.00;;;;;;5070564;28;20206;-63
2023/03/13 00:53:00;;;;;;;2.20;0.50;;;22.40;48.90;;;;;;5070525;28;20202;-64
2023/03/13 00:55:31;;;;;;;0.50;0.40;;;22.40;48.90;;;;;;5070428;28;20233;-63
2023/03/13 00:58:02;;;;;;;0.68;0.40;;;22.40;48.90;;;;;;5070467;28;20199;-63
2023/03/13 01:00:35;;;;;;;1.58;0.70;;;22.40;48.90;;;;;;5070135;28;20233;-63
2023/03/13 01:03:05;;;;;;;0.70;0.50;;;22.40;48.90;;;;;;5071577;28;20197;-64
2023/03/13 01:05:36;;;;;;;1.05;0.40;;;22.30;48.90;;;;;;5070913;28;20222;-63
2023/03/13 01:08:07;;;;;;;0.40;0.30;;;22.40;48.90;;;;;;5070868;28;20193;-64
2023/03/13 01:10:38;;;;;;;1.98;0.60;;;22.30;48.90;;;;;;5070527;28;20202;-64
2023/03/13 01:13:08;;;;;;;0.55;0.45;;;22.30;48.80;;;;;;5070408;28;20663;-63
2023/03/13 01:15:41;;;;;;;0.55;0.40;;;22.30;48.80;;;;;;5070012;28;20580;-63
2023/03/13 01:18:14;;;;;;;0.77;0.32;;;22.30;48.90;;;;;;5070009;28;20191;-62
2023/03/13 01:20:44;;;;;;;0.60;0.40;;;22.30;48.80;;;;;;5068868;28;20289;-63
2023/03/13 01:23:15;;;;;;;0.95;0.40;;;22.20;48.80;;;;;;5070157;28;20191;-63
2023/03/13 01:25:46;;;;;;;1.10;0.50;;;22.30;48.90;;;;;;5070233;28;20580;-63
2023/03/13 01:28:17;;;;;;;1.33;0.57;;;22.20;48.80;;;;;;5070028;28;20351;-64
2023/03/13 01:30:49;;;;;;;0.57;0.40;;;22.20;48.80;;;;;;5069661;28;20280;-63
2023/03/13 01:33:20;;;;;;;1.40;0.40;;;22.20;48.80;;;;;;5070341;28;20673;-63
2023/03/13 01:35:51;;;;;;;0.60;0.50;;;22.20;48.80;;;;;;5069677;28;20256;-63
2023/03/13 01:38:22;;;;;;;0.93;0.40;;;22.20;48.80;;;;;;5069654;28;20235;-63
2023/03/13 01:40:52;;;;;;;1.60;0.57;;;22.20;48.80;;;;;;5069669;28;20210;-61
2023/03/13 01:43:24;;;;;;;0.50;0.50;;;22.20;48.80;;;;;;5069137;28;20552;-63
2023/03/13 01:46:01;;;;;;;0.70;0.43;;;22.20;48.80;;;;;;5072472;28;20214;-63
2023/03/13 01:48:39;;;;;;;2.42;0.45;;;22.20;48.70;;;;;;5073364;28;20199;-63
2023/03/13 01:51:13;;;;;;;1.02;0.35;;;22.10;48.70;;;;;;5072858;28;20197;-63
2023/03/13 01:53:47;;;;;;;0.40;0.40;;;22.10;48.70;;;;;;5073014;28;20277;-63
2023/03/13 01:56:22;;;;;;;0.28;0.28;;;22.10;48.70;;;;;;5073673;28;20225;-63
2023/03/13 01:58:54;;;;;;;0.82;0.40;;;22.10;48.70;;;;;;5073891;28;20654;-63
2023/03/13 02:01:28;;;;;;;0.90;0.43;;;22.10;48.70;;;;;;5073922;28;20191;-61
2023/03/13 02:04:00;;;;;;;0.65;0.35;;;22.10;48.70;;;;;;5073530;28;20218;-62
2023/03/13 02:06:34;;;;;;;0.60;0.45;;;22.10;48.70;;;;;;5073079;28;20229;-62
2023/03/13 02:09:07;;;;;;;2.00;0.50;;;22.00;48.70;;;;;;5072831;28;20202;-63
2023/03/13 02:11:47;;;;;;;0.47;0.40;;;22.10;48.70;;;;;;5073487;28;20211;-63
2023/03/13 02:14:20;;;;;;;0.50;0.47;;;22.00;48.70;;;;;;5063203;28;20191;-63
2023/03/13 02:16:54;;;;;;;0.90;0.52;;;22.10;48.70;;;;;;5073378;28;20713;-64
2023/03/13 02:19:32;;;;;;;0.57;0.40;;;22.10;48.70;;;;;;5072478;28;20201;-60
2023/03/13 02:22:15;;;;;;;0.60;0.45;;;22.00;48.70;;;;;;5073237;28;20205;-63
2023/03/13 02:24:52;;;;;;;0.60;0.40;;;22.00;48.70;;;;;;5073172;28;20198;-63
2023/03/13 02:27:25;;;;;;;0.93;0.60;;;22.00;48.70;;;;;;5073177;28;20203;-62
2023/03/13 02:29:56;;;;;;;1.40;0.50;;;22.00;48.70;;;;;;5072943;28;20195;-63
2023/03/13 02:32:28;;;;;;;0.68;0.40;;;22.00;48.70;;;;;;5072496;28;20202;-63
2023/03/13 02:35:04;;;;;;;0.93;0.50;;;22.00;48.70;;;;;;5072797;28;20214;-63
2023/03/13 02:37:37;;;;;;;0.70;0.45;;;22.00;48.70;;;;;;5072843;28;20209;-63
2023/03/13 02:40:11;;;;;;;0.40;0.35;;;22.00;48.70;;;;;;5072261;28;20203;-64
2023/03/13 02:42:46;;;;;;;0.30;0.30;;;22.00;48.60;;;;;;5072122;28;20186;-63
2023/03/13 02:45:18;;;;;;;0.47;0.30;;;22.00;48.70;;;;;;5072586;28;20712;-61
2023/03/13 02:47:48;;;;;;;0.52;0.40;;;22.00;48.60;;;;;;5079473;28;20215;-63
2023/03/13 02:50:19;;;;;;;0.80;0.32;;;22.00;48.60;;;;;;5091994;28;20190;-61
2023/03/13 02:52:53;;;;;;;0.52;0.32;;;22.00;48.60;;;;;;5085107;28;21052;-60
2023/03/13 02:55:29;;;;;;;0.75;0.50;;;22.00;48.50;;;;;;5075005;28;20222;-60
2023/03/13 02:58:01;;;;;;;0.93;0.43;;;22.00;48.60;;;;;;5076499;28;20190;-64
2023/03/13 03:00:32;;;;;;;0.50;0.40;;;22.00;48.50;;;;;;5068474;28;20202;-64
2023/03/13 03:03:03;;;;;;;0.55;0.40;;;22.00;48.50;;;;;;5072540;28;20243;-62
2023/03/13 03:05:33;;;;;;;0.57;0.40;;;22.00;48.40;;;;;;5072162;28;20223;-64
2023/03/13 03:08:04;;;;;;;0.77;0.40;;;22.00;48.50;;;;;;5077013;28;20187;-63
2023/03/13 03:10:36;;;;;;;1.05;0.52;;;22.00;48.40;;;;;;5092947;28;20194;-64
2023/03/13 03:13:09;;;;;;;1.38;0.40;;;22.00;48.40;;;;;;5072994;28;20191;-61
2023/03/13 03:15:40;;;;;;;0.57;0.30;;;22.00;48.40;;;;;;5071792;28;20222;-61
2023/03/13 03:18:10;;;;;;;0.98;0.40;;;22.10;48.40;;;;;;5071953;28;20186;-61
2023/03/13 03:20:41;;;;;;;1.65;0.50;;;22.00;48.30;;;;;;5071943;28;20667;-63
2023/03/13 03:23:12;;;;;;;0.75;0.40;;;22.10;48.40;;;;;;5071781;28;20603;-63
2023/03/13 03:25:42;;;;;;;0.60;0.50;;;22.10;48.50;;;;;;5071830;28;20226;-61
2023/03/13 03:28:15;;;;;;;1.60;0.50;;;22.10;48.50;;;;;;5071926;28;20191;-64
2023/03/13 03:30:45;;;;;;;0.98;0.40;;;22.10;48.50;;;;;;5071720;28;20198;-63
2023/03/13 03:33:16;;;;;;;1.05;0.50;;;22.00;49.00;;;;;;5071721;28;20194;-62
2023/03/13 03:35:47;;;;;;;0.80;0.40;;;22.10;48.50;;;;;;5071592;28;20594;-61
2023/03/13 03:38:17;;;;;;;1.70;0.60;;;22.10;48.50;;;;;;5071510;28;20195;-62
2023/03/13 03:40:48;;;;;;;1.02;0.40;;;22.10;48.50;;;;;;5071924;28;20203;-63
2023/03/13 03:43:20;;;;;;;0.85;0.43;;;22.10;48.50;;;;;;5070247;28;20187;-63
2023/03/13 03:45:51;;;;;;;0.68;0.50;;;22.20;48.60;;;;;;5071210;28;20652;-64
2023/03/13 03:48:22;;;;;;;1.92;0.60;;;22.20;48.60;;;;;;5071620;28;20195;-63
2023/03/13 03:50:53;;;;;;;0.32;0.32;;;22.20;48.60;;;;;;5071672;28;20195;-63
2023/03/13 03:53:23;;;;;;;0.98;0.43;;;22.20;48.60;;;;;;5071743;28;20195;-63
2023/03/13 03:55:54;;;;;;;1.38;0.45;;;22.20;48.60;;;;;;5071132;28;20233;-64
2023/03/13 03:58:27;;;;;;;0.95;0.40;;;22.20;48.50;;;;;;5070914;28;20241;-63
2023/03/13 04:00:59;;;;;;;0.98;0.43;;;22.20;48.60;;;;;;5070949;28;20417;-63
2023/03/13 04:03:30;;;;;;;0.95;0.70;;;22.30;48.60;;;;;;5071614;28;20217;-63
2023/03/13 04:06:01;;;;;;;1.02;0.60;;;22.30;48.60;;;;;;5070857;28;20575;-62
2023/03/13 04:08:31;;;;;;;1.02;0.50;;;22.30;48.50;;;;;;5069756;28;20206;-62
2023/03/13 04:11:04;;;;;;;1.65;0.70;;;22.30;48.40;;;;;;5067879;28;20213;-63
2023/03/13 04:13:36;;;;;;;0.70;0.45;;;22.30;48.30;;;;;;5070948;28;20662;-59
2023/03/13 04:16:10;;;;;;;0.90;0.40;;;22.40;48.30;;;;;;5070611;28;20218;-61
2023/03/13 04:18:41;;;;;;;0.90;0.50;;;22.40;48.30;;;;;;5071010;28;20618;-63
2023/03/13 04:21:12;;;;;;;1.35;0.60;;;22.40;48.30;;;;;;5071382;28;20202;-62
2023/03/13 04:23:42;;;;;;;1.52;0.50;;;22.40;48.30;;;;;;5071172;28;20195;-61
2023/03/13 04:26:13;;;;;;;1.33;0.60;;;22.40;48.90;;;;;;5070989;28;20227;-64
2023/03/13 04:28:45;;;;;;;1.23;0.70;;;22.50;48.30;;;;;;5070711;28;20198;-63
2023/03/13 04:31:16;;;;;;;1.60;0.60;;;22.50;48.30;;;;;;5070477;28;20229;-63
2023/03/13 04:33:47;;;;;;;1.05;0.50;;;22.50;48.30;;;;;;5076064;28;20190;-62
2023/03/13 04:36:17;;;;;;;0.90;0.40;;;22.50;48.20;;;;;;5079313;28;20237;-63
2023/03/13 04:38:48;;;;;;;1.17;0.50;;;22.50;48.30;;;;;;5071118;28;20195;-62
2023/03/13 04:41:19;;;;;;;0.50;0.40;;;22.50;48.20;;;;;;5070362;28;20201;-60
2023/03/13 04:43:51;;;;;;;2.65;0.80;;;22.50;48.20;;;;;;5075802;28;20201;-63
2023/03/13 04:46:22;;;;;;;1.00;0.47;;;22.50;48.10;;;;;;5080497;28;20215;-62
2023/03/13 04:48:53;;;;;;;0.60;0.43;;;22.50;48.10;;;;;;5070920;28;20198;-60
2023/03/13 04:51:24;;;;;;;0.95;0.45;;;22.60;48.10;;;;;;5070483;28;20233;-62
2023/03/13 04:53:54;;;;;;;0.98;0.57;;;22.60;48.00;;;;;;5070930;28;20183;-60
2023/03/13 04:56:27;;;;;;;1.65;0.50;;;22.60;48.00;;;;;;5070193;28;20234;-61
2023/03/13 04:59:00;;;;;;;0.55;0.40;;;22.60;48.40;;;;;;5070196;28;20187;-62
2023/03/13 05:01:31;;;;;;;1.38;0.68;;;22.60;48.00;;;;;;5069542;28;20198;-63
2023/03/13 05:04:02;;;;;;;0.65;0.60;;;22.60;47.90;;;;;;5070403;28;20282;-63
2023/03/13 05:06:32;;;;;;;0.75;0.50;;;22.70;48.00;;;;;;5070139;28;20218;-63
2023/03/13 05:09:03;;;;;;;0.95;0.60;;;22.70;48.00;;;;;;5070008;28;20190;-61
2023/03/13 05:11:34;;;;;;;0.90;0.55;;;22.70;48.00;;;;;;5070485;28;20199;-62
2023/03/13 05:14:08;;;;;;;1.10;0.80;;;22.70;47.90;;;;;;5070633;28;20545;-63
2023/03/13 05:16:38;;;;;;;1.40;0.93;;;22.70;47.90;;;;;;5070551;28;20447;-61
2023/03/13 05:19:09;;;;;;;1.10;0.70;;;22.70;47.90;;;;;;5070228;28;20194;-63
2023/03/13 05:21:40;;;;;;;1.55;0.63;;;22.70;47.90;;;;;;5074600;28;20665;-63
2023/03/13 05:24:11;;;;;;;1.27;0.73;;;22.80;47.90;;;;;;5073711;28;20591;-61
2023/03/13 05:26:41;;;;;;;2.75;0.93;;;22.80;47.90;;;;;;5072718;28;20937;-64
2023/03/13 05:29:14;;;;;;;3.25;0.95;;;22.80;47.80;;;;;;5073570;28;20190;-61
2023/03/13 05:31:44;;;;;;;1.45;0.77;;;22.80;47.70;;;;;;5073749;28;20194;-62
2023/03/13 05:34:15;;;;;;;2.75;0.85;;;22.80;47.60;;;;;;5073797;28;20195;-65
2023/03/13 05:36:46;;;;;;;2.80;1.02;;;22.80;47.40;;;;;;5073291;28;20246;-63
2023/03/13 05:39:16;;;;;;;2.28;0.90;;;22.90;47.30;;;;;;5073639;28;20187;-63
2023/03/13 05:41:47;;;;;;;1.77;0.85;;;22.90;47.20;;;;;;5073560;28;20203;-63
2023/03/13 05:44:20;;;;;;;1.40;0.70;;;22.90;47.10;;;;;;5074173;28;20194;-63
2023/03/13 05:46:50;;;;;;;1.08;0.70;;;22.90;47.00;;;;;;5073070;28;20221;-63
2023/03/13 05:49:21;;;;;;;2.05;1.02;;;23.00;47.00;;;;;;5073683;28;20557;-63
2023/03/13 05:51:52;;;;;;;2.10;0.90;;;23.00;47.00;;;;;;5073231;28;20195;-63
2023/03/13 05:54:22;;;;;;;1.92;0.70;;;23.00;47.00;;;;;;5072533;28;20203;-63
2023/03/13 05:56:53;;;;;;;1.63;0.95;;;23.00;46.90;;;;;;5073044;28;20234;-63
2023/03/13 05:59:26;;;;;;;1.30;0.60;;;23.00;47.00;;;;;;5072861;28;20647;-63
2023/03/13 06:01:56;;;;;;;2.00;0.60;;;23.00;47.00;;;;;;5073530;28;20198;-63
2023/03/13 06:04:27;;;;;;;1.45;0.80;;;23.00;47.10;;;;;;5073156;28;20203;-62
2023/03/13 06:06:58;;;;;;;2.35;1.13;;;23.10;47.10;;;;;;5073693;28;20706;-63
2023/03/13 06:09:28;;;;;;;1.40;0.70;;;23.00;47.10;;;;;;5073523;28;20202;-63
2023/03/13 06:11:59;;;;;;;1.52;0.70;;;23.10;47.10;;;;;;5073645;28;20197;-63
2023/03/13 06:14:32;;;;;;;0.93;0.50;;;23.10;47.00;;;;;;5073470;28;20201;-63
2023/03/13 06:17:02;;;;;;;2.25;0.75;;;23.10;47.00;;;;;;5073398;28;20234;-62
2023/03/13 06:19:33;;;;;;;1.52;0.73;;;23.10;47.00;;;;;;5073512;28;20202;-63
2023/03/13 06:22:04;;;;;;;1.25;0.65;;;23.10;47.00;;;;;;5073069;28;20198;-62
2023/03/13 06:24:35;;;;;;;1.38;0.55;;;23.10;47.00;;;;;;5072390;28;20201;-62
2023/03/13 06:27:06;;;;;;;2.25;0.73;;;23.10;47.00;;;;;;5072690;28;20202;-62
2023/03/13 06:29:38;;;;;;;1.25;0.80;;;23.10;47.00;;;;;;5073548;28;20208;-62
2023/03/13 06:32:09;;;;;;;1.83;0.65;;;23.20;47.00;;;;;;5070615;28;20198;-63
2023/03/13 06:34:40;;;;;;;2.00;0.80;;;23.10;47.00;;;;;;5072197;28;20581;-62
2023/03/13 06:37:11;;;;;;;1.17;0.65;;;23.20;47.00;;;;;;5072908;28;20222;-63
2023/03/13 06:39:41;;;;;;;1.35;0.77;;;23.20;46.90;;;;;;5072604;28;20195;-62
2023/03/13 06:42:12;;;;;;;0.88;0.60;;;23.10;46.90;;;;;;5072427;28;20524;-60
2023/03/13 06:44:45;;;;;;;0.88;0.63;;;23.20;46.90;;;;;;5058534;28;20190;-62
2023/03/13 06:47:16;;;;;;;1.08;0.75;;;23.20;46.90;;;;;;5072152;28;20670;-62
2023/03/13 06:49:46;;;;;;;0.90;0.68;;;23.20;46.90;;;;;;5071995;28;20198;-62
2023/03/13 06:52:17;;;;;;;0.75;0.57;;;23.10;47.00;;;;;;5073014;28;20202;-63
2023/03/13 06:54:48;;;;;;;1.30;0.77;;;23.10;47.10;;;;;;5073130;28;20206;-63
2023/03/13 06:57:18;;;;;;;1.50;0.50;;;23.10;47.10;;;;;;5072228;28;20222;-63
2023/03/13 06:59:51;;;;;;;1.45;0.60;;;23.10;47.10;;;;;;5072264;28;20198;-62
2023/03/13 07:02:22;;;;;;;0.95;0.75;;;23.10;47.20;;;;;;5072367;28;20209;-63
2023/03/13 07:04:52;;;;;;;1.70;0.95;;;23.10;47.20;;;;;;5071834;28;20206;-63
2023/03/13 07:07:23;;;;;;;2.08;0.98;;;23.10;47.20;;;;;;5072146;28;20199;-61
2023/03/13 07:09:54;;;;;;;0.95;0.65;;;23.10;47.20;;;;;;5072156;28;20195;-61
2023/03/13 07:12:25;;;;;;;0.95;0.60;;;23.10;47.20;;;;;;5072676;28;20191;-62
2023/03/13 07:14:57;;;;;;;0.70;0.50;;;23.10;47.10;;;;;;5072378;28;20209;-62
2023/03/13 07:17:28;;;;;;;1.15;0.80;;;23.10;47.10;;;;;;5071691;28;20638;-63
2023/03/13 07:19:59;;;;;;;1.42;0.80;;;23.00;47.00;;;;;;5071716;28;20199;-62
2023/03/13 07:22:29;;;;;;;1.05;0.70;;;23.00;47.00;;;;;;5072430;28;20197;-62
2023/03/13 07:25:00;;;;;;;1.45;1.00;;;23.00;47.00;;;;;;5071919;28;20221;-61
2023/03/13 07:27:31;;;;;;;0.95;0.85;;;23.00;47.00;;;;;;5072718;28;20198;-63
2023/03/13 07:30:03;;;;;;;1.20;1.00;;;23.00;47.00;;;;;;5072265;28;20217;-62
2023/03/13 07:32:35;;;;;;;2.75;0.90;;;23.00;47.00;;;;;;5071202;28;20561;-61
2023/03/13 07:35:05;;;;;;;1.75;0.95;;;22.90;47.00;;;;;;5071267;28;20577;-62
2023/03/13 07:37:36;;;;;;;1.30;0.80;;;22.90;47.00;;;;;;5071932;28;20229;-62
2023/03/13 07:40:08;;;;;;;1.35;1.00;;;22.90;47.00;;;;;;5071973;28;20206;-63
2023/03/13 07:42:41;;;;;;;1.55;0.90;;;22.90;47.00;;;;;;5071806;28;20256;-63
2023/03/13 07:45:14;;;;;;;1.20;0.80;;;22.90;47.00;;;;;;5071910;28;20262;-64
2023/03/13 07:47:44;;;;;;;1.17;0.80;;;22.90;47.00;;;;;;5071342;28;20199;-62
2023/03/13 07:50:15;;;;;;;1.00;0.90;;;22.90;47.00;;;;;;5071731;28;20202;-61
2023/03/13 07:52:46;;;;;;;1.08;0.82;;;22.90;46.90;;;;;;5071649;28;20195;-63
2023/03/13 07:55:16;;;;;;;1.77;1.13;;;22.80;46.90;;;;;;5071446;28;20686;-63
2023/03/13 07:57:47;;;;;;;1.05;0.95;;;22.80;46.90;;;;;;5071895;28;20590;-62
2023/03/13 08:00:20;;;;;;;1.60;1.05;;;22.80;46.90;;;;;;5071697;28;20581;-63
2023/03/13 08:02:51;;;;;;;1.65;0.90;;;22.70;46.90;;;;;;5071708;28;20195;-62
2023/03/13 08:05:22;;;;;;;1.35;0.90;;;22.70;46.90;;;;;;5071515;28;20226;-61
2023/03/13 08:07:52;;;;;;;1.20;0.80;;;22.70;46.90;;;;;;5071604;28;20217;-62
2023/03/13 08:10:23;;;;;;;2.30;0.93;;;22.70;46.90;;;;;;5071856;28;20789;-62
2023/03/13 08:12:54;;;;;;;1.60;0.98;;;22.70;46.90;;;;;;5071500;28;20579;-63
2023/03/13 08:15:27;;;;;;;1.52;0.82;;;22.60;47.00;;;;;;5071743;28;20699;-61
2023/03/13 08:17:58;;;;;;;1.27;0.98;;;22.60;47.00;;;;;;5071449;28;20219;-61
2023/03/13 08:20:29;;;;;;;1.55;0.90;;;22.60;47.00;;;;;;5071512;28;20693;-62
2023/03/13 08:23:00;;;;;;;1.67;0.85;;;22.60;47.00;;;;;;5071338;28;20198;-63
2023/03/13 08:25:30;;;;;;;0.95;0.85;;;22.50;46.90;;;;;;5071339;28;20218;-62
2023/03/13 08:28:01;;;;;;;1.77;1.10;;;22.60;47.00;;;;;;5071544;28;20209;-63
2023/03/13 08:30:34;;;;;;;1.85;1.10;;;22.50;46.90;;;;;;5071469;28;20552;-62
2023/03/13 08:33:04;;;;;;;1.20;1.10;;;22.50;46.90;;;;;;5070881;28;20554;-63
2023/03/13 08:35:35;;;;;;;1.00;0.90;;;22.50;46.90;;;;;;5051209;28;20219;-64
2023/03/13 08:38:07;;;;;;;1.95;1.15;;;22.50;47.00;;;;;;5051495;28;20314;-55
2023/03/13 08:40:37;;;;;;;3.20;1.67;;;22.50;46.90;;;;;;5051333;28;20283;-55
2023/03/13 08:43:08;;;;;;;2.88;1.80;;;22.40;45.10;;;;;;5051255;28;20681;-62
2023/03/13 08:45:40;;;;;;;3.15;1.70;;;22.30;44.50;;;;;;5050952;28;20215;-62
2023/03/13 08:48:11;;;;;;;1.90;1.15;;;22.10;44.70;;;;;;5057515;28;20187;-62
2023/03/13 08:50:42;;;;;;;3.05;1.33;;;22.00;44.90;;;;;;5071200;28;20198;-62
2023/03/13 08:53:12;;;;;;;4.45;1.65;;;22.00;45.30;;;;;;5071447;28;20199;-62
2023/03/13 08:55:43;;;;;;;2.67;1.45;;;21.90;45.40;;;;;;5074255;28;20218;-63
2023/03/13 08:58:14;;;;;;;1.77;1.10;;;21.90;45.60;;;;;;5074608;28;20214;-63
2023/03/13 09:00:46;;;;;;;2.78;1.35;;;21.90;45.80;;;;;;5074794;28;20203;-62
2023/03/13 09:03:17;;;;;;;3.08;1.25;;;21.80;45.80;;;;;;5075371;28;20706;-62
2023/03/13 09:05:47;;;;;;;1.35;1.05;;;21.80;45.90;;;;;;5074769;28;20276;-62
2023/03/13 09:08:18;;;;;;;2.47;1.02;;;21.80;45.90;;;;;;5074927;28;20198;-61
2023/03/13 09:10:51;;;;;;;2.70;1.10;;;21.80;46.00;;;;;;5072601;28;20195;-62
2023/03/13 09:13:22;;;;;;;1.45;1.05;;;21.80;46.10;;;;;;5073971;28;20201;-63
2023/03/13 09:15:59;;;;;;;1.58;1.20;;;21.80;46.10;;;;;;5073972;28;20214;-63
2023/03/13 09:18:31;;;;;;;1.80;1.02;;;21.80;46.10;;;;;;5073517;28;20722;-63
2023/03/13 09:21:02;;;;;;;3.80;1.00;;;21.70;46.20;;;;;;5074023;28;20210;-63
2023/03/13 09:23:32;;;;;;;2.03;1.35;;;21.70;46.20;;;;;;5074293;28;20682;-61
2023/03/13 09:26:03;;;;;;;1.63;1.15;;;21.70;46.20;;;;;;5073573;28;20219;-62
2023/03/13 09:28:34;;;;;;;4.68;1.20;;;21.70;46.30;;;;;;5074322;28;20194;-60
2023/03/13 09:31:15;;;;;;;1.95;0.98;;;21.70;46.40;;;;;;5072927;28;20628;-61
2023/03/13 09:33:46;;;;;;;2.10;1.20;;;21.70;46.40;;;;;;5073332;28;20265;-62
2023/03/13 09:36:18;;;;;;;2.78;1.20;;;21.70;46.40;;;;;;5072941;28;20838;-62
2023/03/13 09:38:50;;;;;;;2.22;1.20;;;21.70;46.50;;;;;;5073570;28;20332;-63
2023/03/13 09:41:30;;;;;;;1.58;0.90;;;21.60;46.40;;;;;;5074519;28;20270;-63
2023/03/13 09:44:07;;;;;;;1.27;1.10;;;21.60;46.40;;;;;;5073731;28;20225;-63
2023/03/13 09:46:45;;;;;;;3.08;1.20;;;21.60;46.40;;;;;;5073083;28;20210;-63
2023/03/13 09:49:31;;;;;;;2.13;1.10;;;21.60;46.50;;;;;;5070877;28;20199;-63
2023/03/13 09:52:16;;;;;;;1.60;1.38;;;21.60;46.50;;;;;;5073880;28;20199;-62
2023/03/13 09:54:52;;;;;;;1.45;1.10;;;21.60;46.50;;;;;;5073056;28;20187;-62
2023/03/13 09:57:33;;;;;;;2.35;1.20;;;21.60;46.60;;;;;;5072955;28;20230;-61
2023/03/13 10:00:11;;;;;;;2.17;1.17;;;21.60;47.20;;;;;;5073335;28;20191;-63
2023/03/13 10:02:46;;;;;;;2.17;1.10;;;21.50;46.50;;;;;;5074116;28;20236;-63
2023/03/13 10:05:22;;;;;;;1.85;1.13;;;21.50;46.50;;;;;;5072897;28;20694;-63
2023/03/13 10:07:57;;;;;;;1.60;0.95;;;21.50;46.60;;;;;;5072495;28;20289;-65
2023/03/13 10:10:37;;;;;;;1.40;1.10;;;21.50;46.60;;;;;;5072145;28;20253;-62
2023/03/13 10:13:22;;;;;;;2.00;1.00;;;21.50;46.60;;;;;;5073022;28;20301;-61
2023/03/13 10:16:01;;;;;;;1.70;1.10;;;21.50;46.70;;;;;;5072539;28;20207;-62
2023/03/13 10:18:36;;;;;;;1.42;1.13;;;21.40;46.60;;;;;;5073155;28;20230;-62
2023/03/13 10:21:18;;;;;;;1.90;1.23;;;21.50;46.70;;;;;;5072314;28;20844;-62
2023/03/13 10:23:55;;;;;;;1.58;1.10;;;21.40;46.70;;;;;;5072914;28;20202;-62
2023/03/13 10:26:30;;;;;;;2.10;1.10;;;21.40;46.70;;;;;;5073017;28;20301;-64
2023/03/13 10:29:14;;;;;;;1.58;0.82;;;21.40;46.70;;;;;;5073456;28;20194;-63
2023/03/13 10:31:52;;;;;;;1.98;1.02;;;21.40;46.80;;;;;;5072227;28;20226;-62
2023/03/13 10:34:25;;;;;;;1.67;1.00;;;21.40;46.80;;;;;;5072787;28;20203;-63
2023/03/13 10:37:00;;;;;;;1.70;1.00;;;21.40;46.80;;;;;;5053174;28;20777;-63
2023/03/13 10:39:32;;;;;;;2.95;0.90;;;21.40;46.80;;;;;;5057033;28;20646;-62
2023/03/13 10:42:13;;;;;;;1.90;1.05;;;21.40;46.80;;;;;;5072328;28;20195;-62
2023/03/13 10:44:47;;;;;;;2.03;1.10;;;21.30;46.80;;;;;;5071723;28;20206;-62
2023/03/13 10:47:18;;;;;;;1.25;1.00;;;21.30;46.80;;;;;;5072486;28;20276;-63
2023/03/13 10:49:57;;;;;;;1.30;1.00;;;21.30;46.80;;;;;;5072866;28;20199;-63
2023/03/13 10:52:44;;;;;;;2.90;1.10;;;21.30;46.80;;;;;;5072820;28;20194;-61
2023/03/13 10:55:18;;;;;;;3.10;1.02;;;21.30;46.80;;;;;;5071776;28;20575;-62
2023/03/13 10:57:59;;;;;;;1.60;1.10;;;21.30;46.80;;;;;;5071918;28;20221;-63
2023/03/13 11:00:37;;;;;;;2.00;1.20;;;21.20;46.90;;;;;;5071845;28;20201;-62
2023/03/13 11:03:16;;;;;;;1.27;0.90;;;21.20;46.90;;;;;;5072096;28;20285;-63
2023/03/13 11:05:58;;;;;;;1.52;0.90;;;21.20;46.90;;;;;;5071508;28;20293;-62
2023/03/13 11:08:30;;;;;;;1.80;1.00;;;21.20;46.90;;;;;;5072017;28;20198;-61
2023/03/13 11:11:02;;;;;;;1.05;0.95;;;21.20;46.90;;;;;;5071749;28;20225;-63
2023/03/13 11:13:37;;;;;;;1.20;0.90;;;21.20;46.90;;;;;;5071877;28;20199;-63
2023/03/13 11:16:19;;;;;;;1.48;1.10;;;21.20;46.90;;;;;;5072001;28;20210;-63
2023/03/13 11:19:14;;;;;;;1.70;1.17;;;21.20;46.90;;;;;;5070471;28;20598;-62
2023/03/13 11:21:57;;;;;;;1.40;0.80;;;21.20;46.90;;;;;;5061759;28;20195;-62
2023/03/13 11:24:37;;;;;;;1.10;0.73;;;21.10;46.90;;;;;;5070832;28;20199;-62
2023/03/13 11:27:16;;;;;;;1.50;1.08;;;21.10;46.90;;;;;;5070851;28;20195;-62
2023/03/13 11:29:55;;;;;;;1.30;1.10;;;21.10;46.90;;;;;;5071450;28;20647;-63
2023/03/13 11:32:32;;;;;;;1.20;1.08;;;21.10;46.90;;;;;;5051983;28;20199;-62
2023/03/13 11:35:07;;;;;;;1.50;1.05;;;21.10;47.00;;;;;;5054586;28;20223;-61
2023/03/13 11:37:41;;;;;;;1.20;1.02;;;21.00;47.00;;;;;;5069332;28;20658;-62
2023/03/13 11:40:23;;;;;;;1.30;0.90;;;21.00;47.00;;;;;;5071333;28;20209;-62
2023/03/13 11:43:17;;;;;;;1.90;0.95;;;21.00;47.00;;;;;;5071802;28;20195;-62
2023/03/13 11:46:04;;;;;;;1.40;0.88;;;21.00;47.00;;;;;;5071733;28;20223;-61
2023/03/13 11:48:55;;;;;;;1.58;1.00;;;21.00;47.00;;;;;;5052306;28;20565;-62
2023/03/13 11:51:35;;;;;;;1.50;0.90;;;21.00;47.00;;;;;;5051982;28;20200;-63
2023/03/13 11:54:37;;;;;;;2.10;1.00;;;21.00;47.00;;;;;;5051815;28;20199;-62
2023/03/13 11:57:14;;;;;;;2.22;1.05;;;21.00;47.10;;;;;;5063512;28;20198;-62
2023/03/13 11:59:53;;;;;;;1.10;0.90;;;21.00;47.10;;;;;;5072121;28;20253;-62
2023/03/13 12:02:28;;;;;;;0.98;0.73;;;21.00;47.10;;;;;;5072031;28;20191;-62
2023/03/13 12:05:03;;;;;;;1.30;0.90;;;20.90;47.00;;;;;;5071408;28;20677;-63
2023/03/13 12:07:37;;;;;;;1.40;0.85;;;20.90;47.10;;;;;;5071854;28;20568;-61
2023/03/13 12:10:15;;;;;;;1.60;1.10;;;20.90;47.10;;;;;;5071738;28;20197;-62
2023/03/13 12:12:51;;;;;;;1.48;0.90;;;20.90;47.10;;;;;;5071701;28;20204;-62
2023/03/13 12:15:26;;;;;;;2.25;1.02;;;20.90;47.10;;;;;;5071431;28;20709;-60
2023/03/13 12:18:02;;;;;;;2.35;0.93;;;20.90;47.10;;;;;;5070698;28;20214;-61
2023/03/13 12:20:41;;;;;;;1.38;0.95;;;20.90;47.10;;;;;;5069234;28;20190;-62
2023/03/13 12:23:21;;;;;;;1.35;0.73;;;20.90;47.10;;;;;;5068890;28;20233;-62
2023/03/13 12:25:59;;;;;;;1.45;0.80;;;20.80;47.10;;;;;;5068599;28;20214;-61
2023/03/13 12:28:38;;;;;;;1.83;0.90;;;20.80;47.10;;;;;;5068740;28;20191;-62
2023/03/13 12:31:21;;;;;;;0.98;0.82;;;20.80;47.10;;;;;;5068433;28;20194;-62
2023/03/13 12:33:59;;;;;;;0.95;0.80;;;20.80;47.10;;;;;;5068495;28;20263;-62
2023/03/13 12:36:34;;;;;;;0.93;0.80;;;20.80;47.10;;;;;;5050648;28;20584;-61
2023/03/13 12:39:19;;;;;;;1.50;0.90;;;20.80;47.20;;;;;;5066494;28;20584;-61
2023/03/13 12:42:07;;;;;;;1.55;0.88;;;20.80;47.10;;;;;;5071034;28;20568;-62
2023/03/13 12:44:38;;;;;;;1.10;0.90;;;20.80;47.10;;;;;;5071166;28;20260;-62
2023/03/13 12:47:17;;;;;;;1.00;0.75;;;20.70;47.10;;;;;;5071245;28;20205;-61
2023/03/13 12:50:19;;;;;;;1.10;0.80;;;20.70;47.10;;;;;;5071243;28;20795;-62
2023/03/13 12:53:18;;;;;;;1.33;0.90;;;20.70;47.10;;;;;;5061783;28;20281;-62
2023/03/13 12:56:06;;;;;;;0.90;0.77;;;20.70;47.20;;;;;;5070970;28;20215;-61
2023/03/13 12:58:50;;;;;;;2.17;0.82;;;20.70;47.10;;;;;;5071129;28;20218;-62
2023/03/13 13:01:31;;;;;;;1.35;0.77;;;20.60;47.10;;;;;;5070997;28;20194;-61
2023/03/13 13:04:05;;;;;;;1.67;1.02;;;20.70;47.20;;;;;;5071635;28;20202;-61
2023/03/13 13:06:54;;;;;;;1.35;0.85;;;20.60;47.10;;;;;;5071080;28;20225;-62
2023/03/13 13:09:26;;;;;;;0.90;0.70;;;20.60;47.10;;;;;;5070836;28;20199;-61
2023/03/13 13:11:59;;;;;;;0.63;0.63;;;20.60;47.20;;;;;;5070788;28;20207;-61
2023/03/13 13:15:02;;;;;;;2.03;0.70;;;20.60;47.20;;;;;;5070740;28;20202;-62
2023/03/13 13:17:42;;;;;;;2.25;1.00;;;20.60;47.20;;;;;;5071194;28;20206;-61
2023/03/13 13:20:46;;;;;;;1.25;0.95;;;20.60;47.20;;;;;;5070689;28;20218;-62